sensor_id;sensor_type;location;lat;lon;timestamp;temperature;humidity
5520;DHT22;2782;52.362;10.012;2022-08-19T00:00:11;23.30;93.20
5520;DHT22;2782;52.362;10.012;2022-08-19T00:06:54;23.30;92.90
5520;DHT22;2782;52.362;10.012;2022-08-19T00:13:37;23.30;93.00
5520;DHT22;2782;52.362;10.012;2022-08-19T00:20:20;23.20;93.00
5520;DHT22;2782;52.362;10.012;2022-08-19T00:27:02;23.20;93.00
5520;DHT22;2782;52.362;10.012;2022-08-19T00:33:45;23.10;93.00
5520;DHT22;2782;52.362;10.012;2022-08-19T00:40:28;23.00;93.00
5520;DHT22;2782;52.362;10.012;2022-08-19T00:47:11;23.00;92.90
5520;DHT22;2782;52.362;10.012;2022-08-19T00:53:54;22.90;93.00
5520;DHT22;2782;52.362;10.012;2022-08-19T01:00:39;22.90;93.10
5520;DHT22;2782;52.362;10.012;2022-08-19T01:07:21;22.90;93.20
5520;DHT22;2782;52.362;10.012;2022-08-19T01:14:04;22.80;93.20
5520;DHT22;2782;52.362;10.012;2022-08-19T01:20:47;22.80;93.10
5520;DHT22;2782;52.362;10.012;2022-08-19T01:27:39;22.90;92.90
5520;DHT22;2782;52.362;10.012;2022-08-19T01:34:21;22.80;93.00
5520;DHT22;2782;52.362;10.012;2022-08-19T01:41:03;22.80;93.00
5520;DHT22;2782;52.362;10.012;2022-08-19T01:47:46;22.80;93.00
5520;DHT22;2782;52.362;10.012;2022-08-19T01:54:28;22.80;93.00
5520;DHT22;2782;52.362;10.012;2022-08-19T02:01:09;22.80;92.80
5520;DHT22;2782;52.362;10.012;2022-08-19T02:07:52;22.80;92.70
5520;DHT22;2782;52.362;10.012;2022-08-19T02:14:34;22.70;92.60
5520;DHT22;2782;52.362;10.012;2022-08-19T02:21:17;22.70;92.50
5520;DHT22;2782;52.362;10.012;2022-08-19T02:28:00;22.70;92.30
5520;DHT22;2782;52.362;10.012;2022-08-19T02:34:42;22.60;92.30
5520;DHT22;2782;52.362;10.012;2022-08-19T02:41:27;22.60;92.40
5520;DHT22;2782;52.362;10.012;2022-08-19T02:48:10;22.60;92.30
5520;DHT22;2782;52.362;10.012;2022-08-19T02:54:52;22.60;92.10
5520;DHT22;2782;52.362;10.012;2022-08-19T03:01:34;22.60;92.00
5520;DHT22;2782;52.362;10.012;2022-08-19T03:08:17;22.60;91.80
5520;DHT22;2782;52.362;10.012;2022-08-19T03:14:58;22.70;91.70
5520;DHT22;2782;52.362;10.012;2022-08-19T03:21:42;22.70;91.50
5520;DHT22;2782;52.362;10.012;2022-08-19T03:28:26;22.60;91.50
5520;DHT22;2782;52.362;10.012;2022-08-19T03:35:08;22.60;91.50
5520;DHT22;2782;52.362;10.012;2022-08-19T03:41:51;22.60;91.50
5520;DHT22;2782;52.362;10.012;2022-08-19T03:48:39;22.60;91.30
5520;DHT22;2782;52.362;10.012;2022-08-19T03:55:21;22.60;91.20
5520;DHT22;2782;52.362;10.012;2022-08-19T04:02:08;22.60;91.10
5520;DHT22;2782;52.362;10.012;2022-08-19T04:08:52;22.70;91.00
5520;DHT22;2782;52.362;10.012;2022-08-19T04:15:39;22.70;90.90
5520;DHT22;2782;52.362;10.012;2022-08-19T04:22:21;22.60;91.00
5520;DHT22;2782;52.362;10.012;2022-08-19T04:29:07;22.50;91.40
5520;DHT22;2782;52.362;10.012;2022-08-19T04:35:51;22.30;91.90
5520;DHT22;2782;52.362;10.012;2022-08-19T04:42:33;22.30;92.30
5520;DHT22;2782;52.362;10.012;2022-08-19T04:49:23;22.20;92.20
5520;DHT22;2782;52.362;10.012;2022-08-19T04:56:06;22.20;92.90
5520;DHT22;2782;52.362;10.012;2022-08-19T05:02:48;22.20;92.70
5520;DHT22;2782;52.362;10.012;2022-08-19T05:09:31;22.20;92.40
5520;DHT22;2782;52.362;10.012;2022-08-19T05:16:13;22.20;92.40
5520;DHT22;2782;52.362;10.012;2022-08-19T05:22:55;22.20;92.50
5520;DHT22;2782;52.362;10.012;2022-08-19T05:29:38;22.10;92.20
5520;DHT22;2782;52.362;10.012;2022-08-19T05:36:20;22.10;92.30
5520;DHT22;2782;52.362;10.012;2022-08-19T05:43:02;22.20;92.30
5520;DHT22;2782;52.362;10.012;2022-08-19T05:49:45;22.20;91.90
5520;DHT22;2782;52.362;10.012;2022-08-19T05:56:27;22.20;91.60
5520;DHT22;2782;52.362;10.012;2022-08-19T06:03:10;22.30;91.30
5520;DHT22;2782;52.362;10.012;2022-08-19T06:09:53;22.30;91.20
5520;DHT22;2782;52.362;10.012;2022-08-19T06:16:35;22.20;90.70
5520;DHT22;2782;52.362;10.012;2022-08-19T06:23:18;22.20;90.60
5520;DHT22;2782;52.362;10.012;2022-08-19T06:30:02;22.10;90.80
5520;DHT22;2782;52.362;10.012;2022-08-19T06:36:45;22.10;91.10
5520;DHT22;2782;52.362;10.012;2022-08-19T06:43:27;22.10;91.10
5520;DHT22;2782;52.362;10.012;2022-08-19T06:50:10;22.10;91.30
5520;DHT22;2782;52.362;10.012;2022-08-19T06:56:53;22.10;91.40
5520;DHT22;2782;52.362;10.012;2022-08-19T07:03:36;22.20;91.70
5520;DHT22;2782;52.362;10.012;2022-08-19T07:10:19;22.40;91.30
5520;DHT22;2782;52.362;10.012;2022-08-19T07:17:01;22.50;90.60
5520;DHT22;2782;52.362;10.012;2022-08-19T07:23:43;22.70;90.20
5520;DHT22;2782;52.362;10.012;2022-08-19T07:30:26;22.70;89.90
5520;DHT22;2782;52.362;10.012;2022-08-19T07:37:08;22.80;89.40
5520;DHT22;2782;52.362;10.012;2022-08-19T07:43:50;22.90;88.40
5520;DHT22;2782;52.362;10.012;2022-08-19T07:50:33;22.90;87.60
5520;DHT22;2782;52.362;10.012;2022-08-19T07:57:16;22.90;87.30
5520;DHT22;2782;52.362;10.012;2022-08-19T08:03:59;23.00;86.80
5520;DHT22;2782;52.362;10.012;2022-08-19T08:11:00;23.00;86.80
5520;DHT22;2782;52.362;10.012;2022-08-19T08:17:42;23.00;85.60
5520;DHT22;2782;52.362;10.012;2022-08-19T08:24:26;23.00;86.00
5520;DHT22;2782;52.362;10.012;2022-08-19T08:31:10;23.10;86.00
5520;DHT22;2782;52.362;10.012;2022-08-19T08:37:53;23.10;85.00
5520;DHT22;2782;52.362;10.012;2022-08-19T08:44:42;23.10;85.00
5520;DHT22;2782;52.362;10.012;2022-08-19T08:51:29;23.20;85.00
5520;DHT22;2782;52.362;10.012;2022-08-19T08:58:17;23.20;85.10
5520;DHT22;2782;52.362;10.012;2022-08-19T09:05:03;23.20;82.80
5520;DHT22;2782;52.362;10.012;2022-08-19T09:11:56;23.10;82.90
5520;DHT22;2782;52.362;10.012;2022-08-19T09:18:40;23.20;83.60
5520;DHT22;2782;52.362;10.012;2022-08-19T09:25:22;23.20;83.40
5520;DHT22;2782;52.362;10.012;2022-08-19T09:32:06;23.30;82.60
5520;DHT22;2782;52.362;10.012;2022-08-19T09:38:48;23.30;82.90
5520;DHT22;2782;52.362;10.012;2022-08-19T09:45:29;23.30;83.00
5520;DHT22;2782;52.362;10.012;2022-08-19T09:52:12;23.30;82.90
5520;DHT22;2782;52.362;10.012;2022-08-19T09:58:57;23.30;82.50
5520;DHT22;2782;52.362;10.012;2022-08-19T10:05:39;23.40;81.90
5520;DHT22;2782;52.362;10.012;2022-08-19T10:12:31;23.40;81.40
5520;DHT22;2782;52.362;10.012;2022-08-19T10:19:13;23.40;81.60
5520;DHT22;2782;52.362;10.012;2022-08-19T10:25:59;23.40;81.10
5520;DHT22;2782;52.362;10.012;2022-08-19T10:32:42;23.40;79.90
5520;DHT22;2782;52.362;10.012;2022-08-19T10:39:26;23.40;79.20
5520;DHT22;2782;52.362;10.012;2022-08-19T10:46:10;23.40;80.00
5520;DHT22;2782;52.362;10.012;2022-08-19T10:52:53;23.40;79.60
5520;DHT22;2782;52.362;10.012;2022-08-19T10:59:35;23.40;79.30
5520;DHT22;2782;52.362;10.012;2022-08-19T11:06:18;23.50;79.50
5520;DHT22;2782;52.362;10.012;2022-08-19T11:13:02;23.40;79.80
5520;DHT22;2782;52.362;10.012;2022-08-19T11:19:44;23.50;78.70
5520;DHT22;2782;52.362;10.012;2022-08-19T11:26:28;23.50;78.10
5520;DHT22;2782;52.362;10.012;2022-08-19T11:33:11;23.50;79.00
5520;DHT22;2782;52.362;10.012;2022-08-19T11:39:53;23.50;79.20
5520;DHT22;2782;52.362;10.012;2022-08-19T11:46:36;23.50;78.20
5520;DHT22;2782;52.362;10.012;2022-08-19T11:53:19;23.50;78.60
5520;DHT22;2782;52.362;10.012;2022-08-19T12:00:02;23.50;78.60
5520;DHT22;2782;52.362;10.012;2022-08-19T12:06:45;23.50;78.70
5520;DHT22;2782;52.362;10.012;2022-08-19T12:13:28;23.50;78.70
5520;DHT22;2782;52.362;10.012;2022-08-19T12:20:12;23.50;79.20
5520;DHT22;2782;52.362;10.012;2022-08-19T12:26:55;23.50;79.40
5520;DHT22;2782;52.362;10.012;2022-08-19T12:33:41;23.50;79.60
5520;DHT22;2782;52.362;10.012;2022-08-19T12:40:23;23.50;79.80
5520;DHT22;2782;52.362;10.012;2022-08-19T12:47:05;23.50;79.80
5520;DHT22;2782;52.362;10.012;2022-08-19T12:53:49;23.50;79.80
5520;DHT22;2782;52.362;10.012;2022-08-19T13:00:30;23.50;79.60
5520;DHT22;2782;52.362;10.012;2022-08-19T13:07:13;23.50;80.00
5520;DHT22;2782;52.362;10.012;2022-08-19T13:13:56;23.50;79.10
5520;DHT22;2782;52.362;10.012;2022-08-19T13:20:38;23.50;79.00
5520;DHT22;2782;52.362;10.012;2022-08-19T13:27:20;23.60;78.80
5520;DHT22;2782;52.362;10.012;2022-08-19T13:34:04;23.60;78.80
5520;DHT22;2782;52.362;10.012;2022-08-19T13:40:46;23.60;78.70
5520;DHT22;2782;52.362;10.012;2022-08-19T13:47:29;23.60;78.80
5520;DHT22;2782;52.362;10.012;2022-08-19T13:54:12;23.60;78.90
5520;DHT22;2782;52.362;10.012;2022-08-19T14:00:54;23.60;79.00
5520;DHT22;2782;52.362;10.012;2022-08-19T14:07:35;23.60;79.00
5520;DHT22;2782;52.362;10.012;2022-08-19T14:14:18;23.60;78.90
5520;DHT22;2782;52.362;10.012;2022-08-19T14:21:00;23.70;78.90
5520;DHT22;2782;52.362;10.012;2022-08-19T14:27:43;23.70;78.80
5520;DHT22;2782;52.362;10.012;2022-08-19T14:34:26;23.70;76.60
5520;DHT22;2782;52.362;10.012;2022-08-19T14:41:10;23.70;74.60
5520;DHT22;2782;52.362;10.012;2022-08-19T14:47:53;23.80;73.90
5520;DHT22;2782;52.362;10.012;2022-08-19T14:54:36;23.80;74.00
5520;DHT22;2782;52.362;10.012;2022-08-19T15:01:18;23.90;74.40
5520;DHT22;2782;52.362;10.012;2022-08-19T15:08:03;23.90;73.10
5520;DHT22;2782;52.362;10.012;2022-08-19T15:14:46;24.00;69.70
5520;DHT22;2782;52.362;10.012;2022-08-19T15:21:30;24.00;68.40
5520;DHT22;2782;52.362;10.012;2022-08-19T15:28:12;24.00;67.30
5520;DHT22;2782;52.362;10.012;2022-08-19T15:34:57;24.00;66.90
5520;DHT22;2782;52.362;10.012;2022-08-19T15:41:38;24.00;67.10
5520;DHT22;2782;52.362;10.012;2022-08-19T15:48:20;24.00;67.40
5520;DHT22;2782;52.362;10.012;2022-08-19T15:55:04;24.00;66.70
5520;DHT22;2782;52.362;10.012;2022-08-19T16:01:47;24.10;65.50
5520;DHT22;2782;52.362;10.012;2022-08-19T16:08:46;24.00;63.60
5520;DHT22;2782;52.362;10.012;2022-08-19T16:15:31;24.00;62.30
5520;DHT22;2782;52.362;10.012;2022-08-19T16:22:13;24.00;61.50
5520;DHT22;2782;52.362;10.012;2022-08-19T16:28:55;24.00;61.90
5520;DHT22;2782;52.362;10.012;2022-08-19T16:35:38;24.00;61.20
5520;DHT22;2782;52.362;10.012;2022-08-19T16:42:19;24.00;61.00
5520;DHT22;2782;52.362;10.012;2022-08-19T16:49:01;24.00;60.90
5520;DHT22;2782;52.362;10.012;2022-08-19T16:55:44;23.90;61.20
5520;DHT22;2782;52.362;10.012;2022-08-19T17:02:30;23.90;60.50
5520;DHT22;2782;52.362;10.012;2022-08-19T17:09:13;23.90;59.90
5520;DHT22;2782;52.362;10.012;2022-08-19T17:15:56;23.90;60.50
5520;DHT22;2782;52.362;10.012;2022-08-19T17:22:40;23.90;62.50
5520;DHT22;2782;52.362;10.012;2022-08-19T17:29:24;24.00;65.40
5520;DHT22;2782;52.362;10.012;2022-08-19T17:36:07;24.00;65.30
5520;DHT22;2782;52.362;10.012;2022-08-19T17:42:49;24.10;65.50
5520;DHT22;2782;52.362;10.012;2022-08-19T17:49:33;24.10;62.70
5520;DHT22;2782;52.362;10.012;2022-08-19T17:56:18;24.10;61.60
5520;DHT22;2782;52.362;10.012;2022-08-19T18:03:02;24.10;60.30
5520;DHT22;2782;52.362;10.012;2022-08-19T18:09:44;24.10;60.80
5520;DHT22;2782;52.362;10.012;2022-08-19T18:16:28;24.10;59.80
5520;DHT22;2782;52.362;10.012;2022-08-19T18:23:11;24.10;59.70
5520;DHT22;2782;52.362;10.012;2022-08-19T18:29:53;24.10;59.40
5520;DHT22;2782;52.362;10.012;2022-08-19T18:36:40;24.00;59.00
5520;DHT22;2782;52.362;10.012;2022-08-19T18:43:21;23.90;59.60
5520;DHT22;2782;52.362;10.012;2022-08-19T18:50:20;23.90;60.50
5520;DHT22;2782;52.362;10.012;2022-08-19T18:57:04;23.80;60.60
5520;DHT22;2782;52.362;10.012;2022-08-19T19:03:48;23.70;61.10
5520;DHT22;2782;52.362;10.012;2022-08-19T19:10:32;23.60;62.90
5520;DHT22;2782;52.362;10.012;2022-08-19T19:17:17;23.40;62.30
5520;DHT22;2782;52.362;10.012;2022-08-19T19:24:05;23.40;63.10
5520;DHT22;2782;52.362;10.012;2022-08-19T19:30:48;23.30;63.80
5520;DHT22;2782;52.362;10.012;2022-08-19T19:37:31;23.20;64.10
5520;DHT22;2782;52.362;10.012;2022-08-19T19:44:13;23.20;64.60
5520;DHT22;2782;52.362;10.012;2022-08-19T19:50:54;23.10;64.90
5520;DHT22;2782;52.362;10.012;2022-08-19T19:57:38;22.90;64.30
5520;DHT22;2782;52.362;10.012;2022-08-19T20:04:19;22.80;64.40
5520;DHT22;2782;52.362;10.012;2022-08-19T20:11:02;22.80;63.70
5520;DHT22;2782;52.362;10.012;2022-08-19T20:17:45;22.80;65.00
5520;DHT22;2782;52.362;10.012;2022-08-19T20:24:29;22.90;65.50
5520;DHT22;2782;52.362;10.012;2022-08-19T20:31:11;23.10;65.20
5520;DHT22;2782;52.362;10.012;2022-08-19T20:37:54;23.30;66.50
5520;DHT22;2782;52.362;10.012;2022-08-19T20:44:36;23.30;66.40
5520;DHT22;2782;52.362;10.012;2022-08-19T20:51:18;23.30;66.40
5520;DHT22;2782;52.362;10.012;2022-08-19T20:58:01;23.30;66.20
5520;DHT22;2782;52.362;10.012;2022-08-19T21:04:43;23.40;66.30
5520;DHT22;2782;52.362;10.012;2022-08-19T21:11:24;23.40;66.60
5520;DHT22;2782;52.362;10.012;2022-08-19T21:18:08;23.40;68.00
5520;DHT22;2782;52.362;10.012;2022-08-19T21:24:49;23.40;67.30
5520;DHT22;2782;52.362;10.012;2022-08-19T21:31:31;23.40;67.70
5520;DHT22;2782;52.362;10.012;2022-08-19T21:38:14;23.40;68.40
5520;DHT22;2782;52.362;10.012;2022-08-19T21:44:55;23.40;68.40
5520;DHT22;2782;52.362;10.012;2022-08-19T21:51:37;23.40;69.00
5520;DHT22;2782;52.362;10.012;2022-08-19T21:58:20;23.40;69.30
5520;DHT22;2782;52.362;10.012;2022-08-19T22:05:02;23.40;69.40
5520;DHT22;2782;52.362;10.012;2022-08-19T22:11:44;23.40;69.50
5520;DHT22;2782;52.362;10.012;2022-08-19T22:18:27;23.40;69.30
5520;DHT22;2782;52.362;10.012;2022-08-19T22:25:13;23.40;69.60
5520;DHT22;2782;52.362;10.012;2022-08-19T22:31:55;23.40;69.90
5520;DHT22;2782;52.362;10.012;2022-08-19T22:38:38;23.40;70.00
5520;DHT22;2782;52.362;10.012;2022-08-19T22:45:20;23.40;70.20
5520;DHT22;2782;52.362;10.012;2022-08-19T22:52:02;23.40;70.40
5520;DHT22;2782;52.362;10.012;2022-08-19T22:58:59;23.40;70.60
5520;DHT22;2782;52.362;10.012;2022-08-19T23:05:42;23.40;70.90
5520;DHT22;2782;52.362;10.012;2022-08-19T23:12:26;23.40;70.60
5520;DHT22;2782;52.362;10.012;2022-08-19T23:19:10;23.40;71.10
5520;DHT22;2782;52.362;10.012;2022-08-19T23:25:54;23.40;71.10
5520;DHT22;2782;52.362;10.012;2022-08-19T23:32:35;23.40;71.10
5520;DHT22;2782;52.362;10.012;2022-08-19T23:39:18;23.40;71.50
5520;DHT22;2782;52.362;10.012;2022-08-19T23:46:03;23.40;71.60
5520;DHT22;2782;52.362;10.012;2022-08-19T23:52:48;23.40;71.50
5520;DHT22;2782;52.362;10.012;2022-08-19T23:59:31;23.30;71.50
